createdAt,value
2023-04-02T00:02:20.572Z,5.45
2023-04-02T00:05:18.130Z,4.90
2023-04-02T00:07:53.420Z,4.70
2023-04-02T00:10:35.118Z,4.38
2023-04-02T00:13:09.644Z,5.18
2023-04-02T00:15:38.819Z,5.18
2023-04-02T00:18:06.799Z,5.00
2023-04-02T00:20:38.683Z,4.90
2023-04-02T00:25:43.246Z,5.10
2023-04-02T00:28:15.774Z,5.70
2023-04-02T00:31:01.688Z,5.82
2023-04-02T00:33:31.686Z,6.20
2023-04-02T00:35:58.917Z,6.00
2023-04-02T00:38:33.289Z,6.45
2023-04-02T00:41:04.201Z,6.22
2023-04-02T00:43:35.907Z,6.83
2023-04-02T00:46:14.858Z,6.57
2023-04-02T00:49:29.947Z,8.38
2023-04-02T00:52:01.853Z,6.32
2023-04-02T00:54:37.420Z,7.70
2023-04-02T00:57:04.765Z,6.65
2023-04-02T00:59:49.058Z,7.78
2023-04-02T01:02:19.015Z,7.53
2023-04-02T01:05:02.780Z,6.70
2023-04-02T01:07:39.221Z,6.45
2023-04-02T01:10:29.857Z,6.35
2023-04-02T01:13:12.195Z,7.13
2023-04-02T01:15:49.254Z,7.18
2023-04-02T01:18:26.827Z,7.38
2023-04-02T01:21:14.805Z,6.85
2023-04-02T01:23:57.188Z,6.70
2023-04-02T01:26:34.341Z,6.95
2023-04-02T01:29:14.718Z,7.07
2023-04-02T01:31:44.422Z,8.50
2023-04-02T01:34:16.002Z,7.68
2023-04-02T01:37:11.658Z,7.60
2023-04-02T01:40:00.777Z,8.18
2023-04-02T01:42:33.730Z,6.63
2023-04-02T01:45:03.882Z,6.55
2023-04-02T01:47:33.186Z,6.13
2023-04-02T01:50:24.656Z,6.30
2023-04-02T01:52:55.575Z,6.28
2023-04-02T01:55:48.889Z,6.75
2023-04-02T01:58:24.150Z,6.18
2023-04-02T02:01:01.516Z,6.07
2023-04-02T02:03:30.414Z,6.25
2023-04-02T02:05:58.581Z,6.43
2023-04-02T02:08:28.544Z,5.35
2023-04-02T02:10:57.243Z,5.55
2023-04-02T02:13:24.390Z,5.70
2023-04-02T02:15:51.834Z,5.45
2023-04-02T02:18:23.560Z,6.35
2023-04-02T02:20:52.692Z,5.65
2023-04-02T02:23:21.198Z,6.15
2023-04-02T02:25:48.611Z,5.85
2023-04-02T02:28:26.034Z,5.68
2023-04-02T02:30:58.988Z,6.20
2023-04-02T02:33:28.922Z,5.20
2023-04-02T02:36:28.088Z,5.20
2023-04-02T02:39:22.390Z,5.18
2023-04-02T02:41:55.924Z,4.30
2023-04-02T02:44:27.189Z,5.05
2023-04-02T02:47:13.951Z,4.28
2023-04-02T02:49:45.124Z,5.00
2023-04-02T02:52:36.280Z,5.25
2023-04-02T02:55:17.640Z,4.88
2023-04-02T02:58:00.104Z,4.53
2023-04-02T03:00:32.063Z,5.18
2023-04-02T03:03:04.412Z,4.80
2023-04-02T03:05:32.330Z,5.80
2023-04-02T03:08:12.923Z,5.20
2023-04-02T03:10:53.106Z,4.60
2023-04-02T03:13:27.256Z,4.50
2023-04-02T03:16:09.700Z,4.43
2023-04-02T03:18:46.355Z,4.35
2023-04-02T03:21:32.005Z,4.40
2023-04-02T03:24:09.628Z,4.45
2023-04-02T03:26:50.468Z,4.55
2023-04-02T03:29:22.724Z,4.80
2023-04-02T03:32:01.960Z,4.28
2023-04-02T03:34:35.318Z,4.82
2023-04-02T03:37:22.732Z,3.75
2023-04-02T03:40:02.516Z,3.92
2023-04-02T03:42:41.965Z,5.22
2023-04-02T03:45:21.414Z,4.00
2023-04-02T03:48:01.068Z,4.65
2023-04-02T03:50:55.362Z,4.53
2023-04-02T03:53:28.197Z,4.40
2023-04-02T03:55:57.295Z,4.50
2023-04-02T03:58:30.853Z,4.75
2023-04-02T04:01:06.547Z,5.00
2023-04-02T04:03:36.740Z,5.10
2023-04-02T04:06:10.257Z,5.13
2023-04-02T04:08:54.793Z,5.55
2023-04-02T04:11:29.218Z,5.40
2023-04-02T04:13:58.599Z,5.35
2023-04-02T04:16:47.538Z,6.03
2023-04-02T04:19:22.423Z,6.30
2023-04-02T04:21:53.994Z,6.57
2023-04-02T04:24:25.903Z,6.10
2023-04-02T04:27:11.615Z,6.88
2023-04-02T04:29:54.234Z,7.13
2023-04-02T04:32:34.177Z,6.68
2023-04-02T04:35:26.740Z,8.63
2023-04-02T04:38:16.907Z,9.65
2023-04-02T04:40:53.846Z,9.60
2023-04-02T04:43:46.878Z,9.57
2023-04-02T04:46:32.913Z,9.07
2023-04-02T04:49:22.481Z,10.38
2023-04-02T04:52:26.903Z,10.55
2023-04-02T04:54:54.507Z,10.55
2023-04-02T04:57:36.916Z,10.90
2023-04-02T05:00:20.742Z,12.05
2023-04-02T05:03:04.039Z,11.13
2023-04-02T05:05:36.758Z,11.25
2023-04-02T05:08:13.731Z,11.10
2023-04-02T05:10:52.069Z,10.80
2023-04-02T05:13:31.683Z,11.65
2023-04-02T05:16:36.906Z,11.85
2023-04-02T05:19:14.985Z,10.85
2023-04-02T05:21:48.628Z,11.50
2023-04-02T05:24:43.019Z,11.13
2023-04-02T05:27:29.312Z,11.00
2023-04-02T05:30:04.757Z,9.88
2023-04-02T05:32:38.085Z,10.07
2023-04-02T05:35:06.804Z,10.07
2023-04-02T05:37:39.928Z,10.35
2023-04-02T05:40:19.964Z,10.98
2023-04-02T05:42:51.033Z,12.45
2023-04-02T05:45:40.312Z,11.23
2023-04-02T05:48:22.717Z,12.10
2023-04-02T05:50:54.511Z,12.37
2023-04-02T05:53:40.635Z,13.18
2023-04-02T05:56:11.585Z,15.40
2023-04-02T05:58:45.750Z,14.63
2023-04-02T06:01:47.255Z,14.68
2023-04-02T06:05:03.111Z,12.23
2023-04-02T06:07:41.897Z,14.15
2023-04-02T06:10:24.751Z,12.85
2023-04-02T06:13:04.849Z,12.75
2023-04-02T06:15:37.647Z,12.20
2023-04-02T06:18:24.047Z,12.23
2023-04-02T06:20:52.903Z,11.73
2023-04-02T06:23:31.377Z,10.88
2023-04-02T06:26:20.033Z,11.93
2023-04-02T06:29:13.195Z,10.98
2023-04-02T06:32:13.178Z,11.65
2023-04-02T06:34:43.782Z,9.32
2023-04-02T06:37:30.117Z,8.68
2023-04-02T06:40:40.532Z,8.68
2023-04-02T06:43:33.573Z,7.30
2023-04-02T06:46:36.265Z,6.15
2023-04-02T06:49:14.815Z,7.40
2023-04-02T06:51:44.481Z,5.70
2023-04-02T06:54:16.944Z,5.70
2023-04-02T06:56:49.869Z,5.45
2023-04-02T06:59:26.595Z,5.53
2023-04-02T07:02:23.329Z,5.55
2023-04-02T07:04:51.088Z,5.47
2023-04-02T07:07:19.485Z,5.65
2023-04-02T07:09:48.316Z,5.57
2023-04-02T07:12:15.455Z,4.85
2023-04-02T07:14:43.944Z,5.20
2023-04-02T07:17:19.201Z,5.22
2023-04-02T07:19:49.684Z,4.90
2023-04-02T07:22:19.551Z,5.28
2023-04-02T07:27:17.680Z,6.57
2023-04-02T07:29:45.023Z,6.20
2023-04-02T07:32:34.470Z,6.78
2023-04-02T07:35:03.020Z,5.45
2023-04-02T07:37:30.138Z,6.40
2023-04-02T07:39:57.622Z,6.90
2023-04-02T07:42:24.723Z,7.40
2023-04-02T07:44:52.106Z,7.10
2023-04-02T07:47:19.127Z,6.47
2023-04-02T07:49:47.072Z,7.53
2023-04-02T07:52:13.987Z,7.03
2023-04-02T07:54:41.165Z,6.93
2023-04-02T07:57:08.267Z,6.22
2023-04-02T07:59:35.606Z,6.90
2023-04-02T08:02:02.949Z,6.90
2023-04-02T08:04:30.549Z,6.63
2023-04-02T08:06:57.447Z,6.78
2023-04-02T08:09:24.598Z,7.55
2023-04-02T08:11:51.526Z,7.07
2023-04-02T08:14:18.971Z,6.63
2023-04-02T08:16:52.076Z,6.30
2023-04-02T08:19:20.408Z,5.70
2023-04-02T08:21:50.648Z,5.60
2023-04-02T08:24:19.358Z,6.37
2023-04-02T08:26:48.218Z,6.50
2023-04-02T08:29:16.138Z,6.25
2023-04-02T08:31:43.181Z,6.35
2023-04-02T08:34:10.526Z,6.00
2023-04-02T08:36:41.864Z,6.13
2023-04-02T08:41:50.417Z,5.55
2023-04-02T08:44:36.711Z,6.22
2023-04-02T08:47:09.608Z,5.85
2023-04-02T08:49:36.990Z,6.10
2023-04-02T08:52:04.307Z,6.35
2023-04-02T08:54:34.911Z,6.47
2023-04-02T08:57:05.126Z,6.70
2023-04-02T08:59:35.309Z,6.47
2023-04-02T09:02:08.086Z,6.88
2023-04-02T09:04:37.050Z,6.15
2023-04-02T09:07:04.553Z,6.32
2023-04-02T09:09:37.064Z,7.07
2023-04-02T09:12:04.690Z,6.40
2023-04-02T09:15:18.383Z,6.10
2023-04-02T09:17:53.518Z,5.70
2023-04-02T09:20:29.294Z,6.60
2023-04-02T09:22:57.307Z,6.05
2023-04-02T09:25:27.554Z,5.40
2023-04-02T09:27:57.142Z,4.68
2023-04-02T09:30:43.597Z,4.60
2023-04-02T09:33:11.304Z,4.53
2023-04-02T09:35:59.379Z,3.70
2023-04-02T09:38:33.310Z,4.38
2023-04-02T09:41:02.318Z,3.67
2023-04-02T09:43:39.192Z,4.47
2023-04-02T09:46:06.493Z,5.00
2023-04-02T09:48:39.243Z,4.53
2023-04-02T09:51:32.023Z,4.32
2023-04-02T09:54:02.064Z,4.53
2023-04-02T09:56:41.151Z,5.53
2023-04-02T09:59:18.842Z,3.97
2023-04-02T10:01:57.141Z,4.32
2023-04-02T10:04:36.560Z,4.55
2023-04-02T10:07:06.592Z,4.25
2023-04-02T10:09:37.391Z,3.53
2023-04-02T10:12:11.831Z,3.60
2023-04-02T10:14:46.040Z,3.03
2023-04-02T10:17:31.269Z,2.70
2023-04-02T10:20:30.662Z,3.63
2023-04-02T10:23:01.334Z,3.28
2023-04-02T10:25:36.268Z,3.10
2023-04-02T10:28:18.950Z,3.75
2023-04-02T10:30:54.349Z,3.72
2023-04-02T10:33:30.565Z,3.38
2023-04-02T10:36:05.235Z,3.85
2023-04-02T10:39:20.065Z,3.00
2023-04-02T10:42:21.499Z,3.40
2023-04-02T10:44:51.866Z,3.28
2023-04-02T10:47:27.260Z,3.30
2023-04-02T10:50:08.173Z,3.35
2023-04-02T10:52:56.622Z,3.40
2023-04-02T10:55:33.010Z,3.58
2023-04-02T10:58:08.305Z,3.28
2023-04-02T11:00:41.693Z,3.53
2023-04-02T11:03:24.202Z,3.92
2023-04-02T11:05:54.780Z,4.22
2023-04-02T11:08:37.034Z,3.78
2023-04-02T11:11:15.052Z,3.63
2023-04-02T11:13:57.004Z,4.40
2023-04-02T11:16:25.413Z,5.20
2023-04-02T11:19:17.519Z,5.05
2023-04-02T11:22:23.779Z,5.07
2023-04-02T11:24:53.453Z,5.13
2023-04-02T11:27:28.417Z,6.30
2023-04-02T11:30:24.549Z,6.47
2023-04-02T11:32:51.954Z,5.65
2023-04-02T11:35:22.398Z,7.05
2023-04-02T11:37:50.036Z,6.72
2023-04-02T11:40:17.024Z,6.90
2023-04-02T11:42:49.001Z,6.68
2023-04-02T11:45:27.997Z,6.85
2023-04-02T11:48:01.542Z,6.72
2023-04-02T11:50:38.074Z,6.53
2023-04-02T11:53:11.673Z,6.43
2023-04-02T11:55:43.660Z,5.38
2023-04-02T11:58:30.195Z,5.50
2023-04-02T12:01:09.294Z,6.85
2023-04-02T12:03:52.380Z,6.32
2023-04-02T12:06:39.914Z,6.13
2023-04-02T12:09:26.039Z,5.72
2023-04-02T12:11:56.748Z,5.57
2023-04-02T12:14:36.363Z,5.32
2023-04-02T12:17:13.744Z,7.00
2023-04-02T12:19:41.337Z,6.57
2023-04-02T12:22:19.932Z,6.35
2023-04-02T12:24:49.464Z,5.35
2023-04-02T12:27:28.024Z,4.80
2023-04-02T12:30:11.928Z,4.85
2023-04-02T12:32:39.423Z,5.63
2023-04-02T12:35:08.408Z,6.10
2023-04-02T12:37:35.490Z,6.70
2023-04-02T12:40:15.912Z,6.10
2023-04-02T12:42:43.454Z,5.28
2023-04-02T12:45:27.938Z,5.47
2023-04-02T12:47:57.772Z,4.65
2023-04-02T12:50:25.748Z,5.35
2023-04-02T12:52:55.169Z,5.07
2023-04-02T12:55:25.560Z,4.95
2023-04-02T12:57:57.775Z,5.35
2023-04-02T13:00:25.198Z,5.28
2023-04-02T13:03:01.218Z,4.82
2023-04-02T13:05:42.811Z,4.70
2023-04-02T13:08:33.237Z,5.00
2023-04-02T13:11:02.989Z,5.18
2023-04-02T13:13:34.852Z,4.55
2023-04-02T13:16:24.095Z,4.57
2023-04-02T13:18:51.550Z,5.55
2023-04-02T13:21:29.726Z,4.30
2023-04-02T13:23:56.878Z,5.10
2023-04-02T13:26:26.395Z,4.65
2023-04-02T13:28:57.169Z,4.93
2023-04-02T13:31:24.604Z,4.45
2023-04-02T13:33:51.822Z,3.55
2023-04-02T13:36:19.067Z,3.40
2023-04-02T13:38:46.008Z,3.65
2023-04-02T13:41:21.528Z,4.53
2023-04-02T13:43:50.832Z,4.38
2023-04-02T13:46:23.784Z,4.38
2023-04-02T13:48:52.279Z,3.92
2023-04-02T13:51:22.737Z,3.78
2023-04-02T13:53:55.493Z,4.18
2023-04-02T13:56:24.741Z,3.15
2023-04-02T13:58:52.318Z,4.20
2023-04-02T14:01:22.165Z,4.20
2023-04-02T14:03:49.353Z,4.63
2023-04-02T14:06:44.028Z,4.05
2023-04-02T14:09:37.404Z,3.92
2023-04-02T14:12:20.453Z,3.85
2023-04-02T14:15:14.792Z,4.13
2023-04-02T14:18:13.882Z,4.40
2023-04-02T14:20:46.992Z,3.33
2023-04-02T14:23:51.351Z,3.50
2023-04-02T14:26:39.731Z,3.80
2023-04-02T14:29:16.607Z,3.45
2023-04-02T14:31:51.493Z,4.20
2023-04-02T14:34:51.739Z,3.58
2023-04-02T14:37:33.734Z,3.45
2023-04-02T14:40:26.320Z,4.80
2023-04-02T14:43:00.267Z,4.20
2023-04-02T14:46:05.345Z,4.53
2023-04-02T14:48:51.348Z,4.20
2023-04-02T14:51:18.774Z,4.10
2023-04-02T14:53:54.842Z,4.43
2023-04-02T14:56:24.766Z,4.05
2023-04-02T14:59:05.573Z,3.72
2023-04-02T15:01:41.377Z,4.80
2023-04-02T15:04:15.265Z,4.32
2023-04-02T15:06:52.995Z,3.95
2023-04-02T15:09:32.293Z,3.20
2023-04-02T15:12:11.221Z,3.28
2023-04-02T15:15:33.090Z,3.38
2023-04-02T15:18:11.104Z,3.63
2023-04-02T15:23:34.409Z,3.53
2023-04-02T15:26:12.822Z,3.72
2023-04-02T15:29:09.302Z,3.72
2023-04-02T15:31:46.105Z,3.53
2023-04-02T15:34:26.621Z,3.75
2023-04-02T15:37:05.805Z,3.78
2023-04-02T15:39:45.980Z,3.42
2023-04-02T15:42:23.958Z,4.28
2023-04-02T15:45:17.825Z,3.78
2023-04-02T15:47:53.579Z,4.65
2023-04-02T15:50:40.407Z,3.97
2023-04-02T15:53:17.120Z,4.28
2023-04-02T15:55:54.561Z,4.72
2023-04-02T15:58:35.567Z,4.53
2023-04-02T16:01:26.333Z,4.55
2023-04-02T16:04:19.582Z,4.22
2023-04-02T16:07:21.545Z,4.90
2023-04-02T16:10:16.559Z,4.88
2023-04-02T16:12:46.665Z,5.82
2023-04-02T16:15:23.570Z,5.80
2023-04-02T16:18:01.740Z,4.85
2023-04-02T16:20:37.074Z,4.72
2023-04-02T16:23:14.771Z,4.20
2023-04-02T16:25:56.426Z,4.53
2023-04-02T16:33:54.443Z,4.38
2023-04-02T16:36:35.740Z,5.32
2023-04-02T16:42:01.264Z,4.30
2023-04-02T16:44:31.339Z,4.35
2023-04-02T16:47:16.942Z,4.20
2023-04-02T16:50:18.960Z,4.32
2023-04-02T16:53:00.034Z,5.15
2023-04-02T16:56:09.915Z,4.97
2023-04-02T16:58:54.912Z,4.47
2023-04-02T17:01:27.952Z,4.35
2023-04-02T17:04:08.825Z,4.97
2023-04-02T17:06:37.566Z,5.22
2023-04-02T17:09:24.837Z,4.90
2023-04-02T17:12:04.364Z,4.75
2023-04-02T17:14:36.890Z,5.13
2023-04-02T17:17:05.205Z,4.40
2023-04-02T17:19:33.031Z,5.40
2023-04-02T17:22:05.273Z,4.72
2023-04-02T17:24:38.865Z,5.95
2023-04-02T17:27:17.965Z,5.45
2023-04-02T17:29:51.445Z,4.88
2023-04-02T17:32:33.181Z,5.57
2023-04-02T17:35:22.567Z,4.90
2023-04-02T17:38:08.334Z,5.93
2023-04-02T17:40:41.002Z,5.55
2023-04-02T17:43:27.032Z,5.97
2023-04-02T17:46:05.004Z,5.10
2023-04-02T17:48:47.497Z,6.18
2023-04-02T17:51:30.038Z,6.03
2023-04-02T17:54:12.630Z,6.07
2023-04-02T17:57:06.976Z,5.63
2023-04-02T17:59:58.340Z,5.57
2023-04-02T18:02:43.567Z,4.85
2023-04-02T18:05:32.257Z,4.63
2023-04-02T18:08:22.920Z,5.13
2023-04-02T18:11:04.182Z,4.80
2023-04-02T18:13:36.130Z,4.13
2023-04-02T18:16:18.144Z,4.38
2023-04-02T18:19:03.690Z,4.00
2023-04-02T18:22:00.796Z,4.25
2023-04-02T18:24:44.006Z,4.40
2023-04-02T18:27:14.524Z,3.97
2023-04-02T18:30:04.213Z,3.97
2023-04-02T18:32:34.531Z,4.53
2023-04-02T18:35:13.289Z,4.80
2023-04-02T18:38:05.728Z,3.78
2023-04-02T18:40:57.894Z,3.72
2023-04-02T18:43:43.640Z,3.83
2023-04-02T18:46:40.508Z,3.63
2023-04-02T18:49:26.763Z,3.72
2023-04-02T18:52:01.400Z,4.43
2023-04-02T18:54:36.221Z,4.18
2023-04-02T18:57:14.748Z,3.25
2023-04-02T18:59:51.399Z,4.00
2023-04-02T19:02:34.817Z,4.22
2023-04-02T19:05:06.572Z,4.20
2023-04-02T19:07:38.922Z,4.05
2023-04-02T19:10:23.980Z,4.82
2023-04-02T19:12:51.390Z,4.63
2023-04-02T19:15:21.327Z,3.97
2023-04-02T19:18:08.563Z,4.72
2023-04-02T19:20:55.645Z,4.80
2023-04-02T19:23:34.763Z,4.72
2023-04-02T19:26:32.788Z,4.43
2023-04-02T19:29:18.544Z,4.78
2023-04-02T19:31:56.341Z,5.43
2023-04-02T19:34:34.516Z,3.70
2023-04-02T19:37:11.268Z,3.50
2023-04-02T19:39:59.596Z,3.60
2023-04-02T19:42:42.202Z,3.30
2023-04-02T19:45:21.964Z,3.63
2023-04-02T19:47:49.473Z,3.55
2023-04-02T19:50:16.404Z,3.35
2023-04-02T19:52:43.857Z,4.40
2023-04-02T19:55:10.946Z,4.40
2023-04-02T19:57:38.369Z,3.92
2023-04-02T20:00:06.691Z,4.07
2023-04-02T20:02:39.820Z,4.70
2023-04-02T20:05:07.832Z,4.55
2023-04-02T20:07:35.036Z,4.72
2023-04-02T20:10:02.050Z,3.58
2023-04-02T20:12:29.419Z,4.35
2023-04-02T20:14:56.517Z,4.20
2023-04-02T20:17:23.844Z,4.95
2023-04-02T20:19:51.009Z,4.45
2023-04-02T20:22:19.146Z,4.75
2023-04-02T20:24:46.261Z,4.38
2023-04-02T20:27:13.473Z,3.72
2023-04-02T20:29:42.351Z,4.75
2023-04-02T20:32:09.961Z,4.47
2023-04-02T20:34:36.946Z,3.80
2023-04-02T20:37:04.373Z,3.90
2023-04-02T20:39:31.369Z,2.92
2023-04-02T20:42:02.441Z,3.63
2023-04-02T20:44:29.749Z,3.72
2023-04-02T20:46:57.028Z,2.42
2023-04-02T20:49:23.924Z,2.38
2023-04-02T20:51:51.245Z,2.38
2023-04-02T20:54:18.689Z,1.95
2023-04-02T20:56:46.390Z,2.45
2023-04-02T20:59:13.357Z,2.00
2023-04-02T21:01:40.724Z,2.00
2023-04-02T21:04:07.822Z,2.17
2023-04-02T21:06:38.043Z,2.08
2023-04-02T21:09:14.579Z,1.80
2023-04-02T21:11:42.747Z,1.90
2023-04-02T21:14:10.406Z,1.80
2023-04-02T21:16:39.814Z,1.30
2023-04-02T21:19:09.052Z,1.55
2023-04-02T21:21:38.717Z,1.40
2023-04-02T21:24:08.057Z,1.30
2023-04-02T21:26:38.755Z,1.58
2023-04-02T21:29:06.389Z,1.70
2023-04-02T21:31:36.528Z,1.40
2023-04-02T21:34:04.450Z,1.30
2023-04-02T21:36:37.577Z,1.42
2023-04-02T21:39:10.612Z,1.30
2023-04-02T21:41:41.753Z,1.50
2023-04-02T21:44:10.275Z,1.17
2023-04-02T21:46:39.167Z,1.40
2023-04-02T21:49:08.528Z,1.20
2023-04-02T21:51:37.600Z,1.30
2023-04-02T21:54:04.955Z,1.30
2023-04-02T21:56:34.698Z,1.52
2023-04-02T21:59:02.260Z,1.20
2023-04-02T22:01:33.771Z,1.23
2023-04-02T22:04:02.836Z,1.48
2023-04-02T22:06:32.349Z,1.58
2023-04-02T22:09:01.651Z,1.50
2023-04-02T22:11:31.783Z,1.20
2023-04-02T22:13:59.455Z,1.60
2023-04-02T22:16:29.953Z,1.40
2023-04-02T22:19:01.032Z,1.40
2023-04-02T22:21:30.477Z,1.50
2023-04-02T22:24:01.555Z,1.33
2023-04-02T22:26:29.708Z,1.30
2023-04-02T22:28:56.723Z,1.63
2023-04-02T22:31:26.323Z,1.52
2023-04-02T22:33:54.906Z,1.50
2023-04-02T22:36:23.758Z,1.45
2023-04-02T22:38:51.007Z,1.92
2023-04-02T22:41:20.048Z,1.30
2023-04-02T22:43:47.602Z,1.30
2023-04-02T22:46:17.231Z,1.50
2023-04-02T22:48:45.800Z,1.55
2023-04-02T22:51:14.899Z,1.38
2023-04-02T22:53:43.146Z,1.58
2023-04-02T22:56:14.405Z,2.13
2023-04-02T22:58:41.717Z,1.33
2023-04-02T23:01:10.596Z,1.38
2023-04-02T23:03:38.036Z,1.40
2023-04-02T23:06:08.158Z,1.20
2023-04-02T23:08:36.434Z,1.20
2023-04-02T23:11:16.590Z,1.58
2023-04-02T23:13:44.690Z,1.17
2023-04-02T23:16:15.642Z,1.30
2023-04-02T23:18:45.783Z,1.45
2023-04-02T23:21:13.141Z,1.15
2023-04-02T23:23:40.394Z,1.50
2023-04-02T23:26:07.717Z,1.38
2023-04-02T23:28:37.241Z,1.23
2023-04-02T23:31:06.898Z,1.67
2023-04-02T23:33:34.949Z,1.80
2023-04-02T23:36:15.014Z,1.48
2023-04-02T23:38:42.172Z,1.65
2023-04-02T23:41:14.771Z,1.40
2023-04-02T23:43:42.365Z,1.40
2023-04-02T23:46:10.222Z,1.25
2023-04-02T23:48:37.432Z,1.20
2023-04-02T23:51:06.112Z,2.60
2023-04-02T23:53:34.544Z,1.52
2023-04-02T23:56:02.134Z,1.30
2023-04-02T23:58:29.751Z,1.35
